sensor_id;sensor_type;location;lat;lon;timestamp;temperature;humidity
32877;DHT22;19226;51.600;8.034;2022-10-16T00:00:05;15.10;99.90
32877;DHT22;19226;51.600;8.034;2022-10-16T00:02:38;15.10;99.90
32877;DHT22;19226;51.600;8.034;2022-10-16T00:05:04;15.00;99.90
32877;DHT22;19226;51.600;8.034;2022-10-16T00:07:31;15.00;99.90
32877;DHT22;19226;51.600;8.034;2022-10-16T00:09:57;15.00;99.90
32877;DHT22;19226;51.600;8.034;2022-10-16T00:12:23;15.00;99.90
32877;DHT22;19226;51.600;8.034;2022-10-16T00:14:55;15.00;99.90
32877;DHT22;19226;51.600;8.034;2022-10-16T00:17:22;15.00;99.90
32877;DHT22;19226;51.600;8.034;2022-10-16T00:19:50;15.00;99.90
32877;DHT22;19226;51.600;8.034;2022-10-16T00:22:17;15.00;99.90
32877;DHT22;19226;51.600;8.034;2022-10-16T00:24:43;15.00;99.90
32877;DHT22;19226;51.600;8.034;2022-10-16T00:27:09;14.90;99.90
32877;DHT22;19226;51.600;8.034;2022-10-16T00:29:35;15.00;99.90
32877;DHT22;19226;51.600;8.034;2022-10-16T00:32:03;14.90;99.90
32877;DHT22;19226;51.600;8.034;2022-10-16T00:34:29;14.90;99.90
32877;DHT22;19226;51.600;8.034;2022-10-16T00:36:56;14.90;99.90
32877;DHT22;19226;51.600;8.034;2022-10-16T00:39:22;14.90;99.90
32877;DHT22;19226;51.600;8.034;2022-10-16T00:41:49;14.90;99.90
32877;DHT22;19226;51.600;8.034;2022-10-16T00:44:43;14.90;99.90
32877;DHT22;19226;51.600;8.034;2022-10-16T00:47:39;14.90;99.90
32877;DHT22;19226;51.600;8.034;2022-10-16T00:50:32;14.80;99.90
32877;DHT22;19226;51.600;8.034;2022-10-16T00:53:00;14.80;99.90
32877;DHT22;19226;51.600;8.034;2022-10-16T00:55:30;14.70;99.90
32877;DHT22;19226;51.600;8.034;2022-10-16T00:57:57;14.70;99.90
32877;DHT22;19226;51.600;8.034;2022-10-16T01:00:26;14.70;99.90
32877;DHT22;19226;51.600;8.034;2022-10-16T01:05:22;14.70;99.90
32877;DHT22;19226;51.600;8.034;2022-10-16T01:07:58;14.70;99.90
32877;DHT22;19226;51.600;8.034;2022-10-16T01:10:52;14.80;99.90
32877;DHT22;19226;51.600;8.034;2022-10-16T01:13:42;14.80;99.90
32877;DHT22;19226;51.600;8.034;2022-10-16T01:16:24;14.80;99.90
32877;DHT22;19226;51.600;8.034;2022-10-16T01:19:05;14.80;99.90
32877;DHT22;19226;51.600;8.034;2022-10-16T01:21:39;14.80;99.90
32877;DHT22;19226;51.600;8.034;2022-10-16T01:24:33;14.80;99.90
32877;DHT22;19226;51.600;8.034;2022-10-16T01:29:56;14.80;99.90
32877;DHT22;19226;51.600;8.034;2022-10-16T01:32:33;14.80;99.90
32877;DHT22;19226;51.600;8.034;2022-10-16T01:35:08;14.80;99.90
32877;DHT22;19226;51.600;8.034;2022-10-16T01:37:59;14.70;99.90
32877;DHT22;19226;51.600;8.034;2022-10-16T01:40:28;14.70;99.90
32877;DHT22;19226;51.600;8.034;2022-10-16T01:43:00;14.70;99.90
32877;DHT22;19226;51.600;8.034;2022-10-16T01:45:29;14.70;99.90
32877;DHT22;19226;51.600;8.034;2022-10-16T01:48:00;14.70;99.90
32877;DHT22;19226;51.600;8.034;2022-10-16T01:50:32;14.70;99.90
32877;DHT22;19226;51.600;8.034;2022-10-16T01:53:00;14.70;99.90
32877;DHT22;19226;51.600;8.034;2022-10-16T01:55:33;14.70;99.90
32877;DHT22;19226;51.600;8.034;2022-10-16T01:58:01;14.70;99.90
32877;DHT22;19226;51.600;8.034;2022-10-16T02:00:30;14.70;99.90
32877;DHT22;19226;51.600;8.034;2022-10-16T02:02:57;14.70;99.90
32877;DHT22;19226;51.600;8.034;2022-10-16T02:05:32;14.70;99.90
32877;DHT22;19226;51.600;8.034;2022-10-16T02:08:02;14.70;99.90
32877;DHT22;19226;51.600;8.034;2022-10-16T02:10:28;14.70;99.90
32877;DHT22;19226;51.600;8.034;2022-10-16T02:13:17;14.70;99.90
32877;DHT22;19226;51.600;8.034;2022-10-16T02:15:45;14.70;99.90
32877;DHT22;19226;51.600;8.034;2022-10-16T02:18:13;14.60;99.90
32877;DHT22;19226;51.600;8.034;2022-10-16T02:20:51;14.70;99.90
32877;DHT22;19226;51.600;8.034;2022-10-16T02:23:27;14.60;99.90
32877;DHT22;19226;51.600;8.034;2022-10-16T02:25:58;14.60;99.90
32877;DHT22;19226;51.600;8.034;2022-10-16T02:28:37;14.60;99.90
32877;DHT22;19226;51.600;8.034;2022-10-16T02:31:09;14.60;99.90
32877;DHT22;19226;51.600;8.034;2022-10-16T02:33:39;14.60;99.90
32877;DHT22;19226;51.600;8.034;2022-10-16T02:36:07;14.60;99.90
32877;DHT22;19226;51.600;8.034;2022-10-16T02:38:36;14.60;99.90
32877;DHT22;19226;51.600;8.034;2022-10-16T02:41:03;14.60;99.90
32877;DHT22;19226;51.600;8.034;2022-10-16T02:43:32;14.60;99.90
32877;DHT22;19226;51.600;8.034;2022-10-16T02:45:59;14.60;99.90
32877;DHT22;19226;51.600;8.034;2022-10-16T02:48:26;14.50;99.90
32877;DHT22;19226;51.600;8.034;2022-10-16T02:50:52;14.60;99.90
32877;DHT22;19226;51.600;8.034;2022-10-16T02:53:19;14.60;99.90
32877;DHT22;19226;51.600;8.034;2022-10-16T02:55:45;14.60;99.90
32877;DHT22;19226;51.600;8.034;2022-10-16T02:58:32;14.60;99.90
32877;DHT22;19226;51.600;8.034;2022-10-16T03:01:00;14.60;99.90
32877;DHT22;19226;51.600;8.034;2022-10-16T03:03:26;14.60;99.90
32877;DHT22;19226;51.600;8.034;2022-10-16T03:05:52;14.50;99.90
32877;DHT22;19226;51.600;8.034;2022-10-16T03:08:18;14.60;99.90
32877;DHT22;19226;51.600;8.034;2022-10-16T03:10:51;14.50;99.90
32877;DHT22;19226;51.600;8.034;2022-10-16T03:13:17;14.50;99.90
32877;DHT22;19226;51.600;8.034;2022-10-16T03:15:47;14.50;99.90
32877;DHT22;19226;51.600;8.034;2022-10-16T03:18:14;14.50;99.90
32877;DHT22;19226;51.600;8.034;2022-10-16T03:20:43;14.50;99.90
32877;DHT22;19226;51.600;8.034;2022-10-16T03:23:09;14.50;99.90
32877;DHT22;19226;51.600;8.034;2022-10-16T03:25:35;14.50;99.90
32877;DHT22;19226;51.600;8.034;2022-10-16T03:28:04;14.60;99.90
32877;DHT22;19226;51.600;8.034;2022-10-16T03:30:30;14.60;99.90
32877;DHT22;19226;51.600;8.034;2022-10-16T03:32:58;14.60;99.90
32877;DHT22;19226;51.600;8.034;2022-10-16T03:35:24;14.60;99.90
32877;DHT22;19226;51.600;8.034;2022-10-16T03:37:56;14.60;99.90
32877;DHT22;19226;51.600;8.034;2022-10-16T03:40:22;14.60;99.90
32877;DHT22;19226;51.600;8.034;2022-10-16T03:42:51;14.60;99.90
32877;DHT22;19226;51.600;8.034;2022-10-16T03:45:17;14.60;99.90
32877;DHT22;19226;51.600;8.034;2022-10-16T03:47:43;14.60;99.90
32877;DHT22;19226;51.600;8.034;2022-10-16T03:50:09;14.60;99.90
32877;DHT22;19226;51.600;8.034;2022-10-16T03:52:35;14.70;99.90
32877;DHT22;19226;51.600;8.034;2022-10-16T03:55:02;14.70;99.90
32877;DHT22;19226;51.600;8.034;2022-10-16T03:57:28;14.70;99.90
32877;DHT22;19226;51.600;8.034;2022-10-16T04:00:15;14.70;99.90
32877;DHT22;19226;51.600;8.034;2022-10-16T04:02:42;14.70;99.90
32877;DHT22;19226;51.600;8.034;2022-10-16T04:05:10;14.70;99.90
32877;DHT22;19226;51.600;8.034;2022-10-16T04:07:36;14.70;99.90
32877;DHT22;19226;51.600;8.034;2022-10-16T04:10:24;14.70;99.90
32877;DHT22;19226;51.600;8.034;2022-10-16T04:12:50;14.80;99.90
32877;DHT22;19226;51.600;8.034;2022-10-16T04:15:16;14.70;99.90
32877;DHT22;19226;51.600;8.034;2022-10-16T04:17:42;14.80;99.90
32877;DHT22;19226;51.600;8.034;2022-10-16T04:20:10;14.80;99.90
32877;DHT22;19226;51.600;8.034;2022-10-16T04:22:36;14.80;99.90
32877;DHT22;19226;51.600;8.034;2022-10-16T04:25:03;14.80;99.90
32877;DHT22;19226;51.600;8.034;2022-10-16T04:27:29;14.80;99.90
32877;DHT22;19226;51.600;8.034;2022-10-16T04:30:00;14.80;99.90
32877;DHT22;19226;51.600;8.034;2022-10-16T04:32:26;14.80;99.90
32877;DHT22;19226;51.600;8.034;2022-10-16T04:35:13;14.80;99.90
32877;DHT22;19226;51.600;8.034;2022-10-16T04:37:39;14.80;99.90
32877;DHT22;19226;51.600;8.034;2022-10-16T04:40:05;14.80;99.90
32877;DHT22;19226;51.600;8.034;2022-10-16T04:42:32;14.80;99.90
32877;DHT22;19226;51.600;8.034;2022-10-16T04:44:58;14.80;99.90
32877;DHT22;19226;51.600;8.034;2022-10-16T04:47:24;14.80;99.90
32877;DHT22;19226;51.600;8.034;2022-10-16T04:49:50;14.80;99.90
32877;DHT22;19226;51.600;8.034;2022-10-16T04:52:16;14.80;99.90
32877;DHT22;19226;51.600;8.034;2022-10-16T04:54:44;14.80;99.90
32877;DHT22;19226;51.600;8.034;2022-10-16T04:57:11;14.70;99.90
32877;DHT22;19226;51.600;8.034;2022-10-16T04:59:38;14.70;99.90
32877;DHT22;19226;51.600;8.034;2022-10-16T05:02:04;14.70;99.90
32877;DHT22;19226;51.600;8.034;2022-10-16T05:04:30;14.60;99.90
32877;DHT22;19226;51.600;8.034;2022-10-16T05:06:57;14.60;99.90
32877;DHT22;19226;51.600;8.034;2022-10-16T05:09:23;14.60;99.90
32877;DHT22;19226;51.600;8.034;2022-10-16T05:11:50;14.60;99.90
32877;DHT22;19226;51.600;8.034;2022-10-16T05:14:16;14.60;99.90
32877;DHT22;19226;51.600;8.034;2022-10-16T05:16:42;14.60;99.90
32877;DHT22;19226;51.600;8.034;2022-10-16T05:19:08;14.60;99.90
32877;DHT22;19226;51.600;8.034;2022-10-16T05:21:36;14.60;99.90
32877;DHT22;19226;51.600;8.034;2022-10-16T05:24:09;14.60;99.90
32877;DHT22;19226;51.600;8.034;2022-10-16T05:26:35;14.60;99.90
32877;DHT22;19226;51.600;8.034;2022-10-16T05:29:01;14.50;99.90
32877;DHT22;19226;51.600;8.034;2022-10-16T05:31:28;14.50;99.90
32877;DHT22;19226;51.600;8.034;2022-10-16T05:34:01;14.50;99.90
32877;DHT22;19226;51.600;8.034;2022-10-16T05:36:30;14.60;99.90
32877;DHT22;19226;51.600;8.034;2022-10-16T05:38:56;14.50;99.90
32877;DHT22;19226;51.600;8.034;2022-10-16T05:41:22;14.50;99.90
32877;DHT22;19226;51.600;8.034;2022-10-16T05:43:53;14.50;99.90
32877;DHT22;19226;51.600;8.034;2022-10-16T05:46:20;14.50;99.90
32877;DHT22;19226;51.600;8.034;2022-10-16T05:48:47;14.50;99.90
32877;DHT22;19226;51.600;8.034;2022-10-16T05:51:14;14.50;99.90
32877;DHT22;19226;51.600;8.034;2022-10-16T05:53:42;14.50;99.90
32877;DHT22;19226;51.600;8.034;2022-10-16T05:56:10;14.50;99.90
32877;DHT22;19226;51.600;8.034;2022-10-16T05:58:38;14.50;99.90
32877;DHT22;19226;51.600;8.034;2022-10-16T06:01:09;14.50;99.90
32877;DHT22;19226;51.600;8.034;2022-10-16T06:03:36;14.40;99.90
32877;DHT22;19226;51.600;8.034;2022-10-16T06:06:16;14.40;99.90
32877;DHT22;19226;51.600;8.034;2022-10-16T06:08:44;14.50;99.90
32877;DHT22;19226;51.600;8.034;2022-10-16T06:11:16;14.50;99.90
32877;DHT22;19226;51.600;8.034;2022-10-16T06:13:44;14.50;99.90
32877;DHT22;19226;51.600;8.034;2022-10-16T06:16:13;14.50;99.90
32877;DHT22;19226;51.600;8.034;2022-10-16T06:18:41;14.50;99.90
32877;DHT22;19226;51.600;8.034;2022-10-16T06:21:13;14.50;99.90
32877;DHT22;19226;51.600;8.034;2022-10-16T06:23:42;14.50;99.90
32877;DHT22;19226;51.600;8.034;2022-10-16T06:26:12;14.50;99.90
32877;DHT22;19226;51.600;8.034;2022-10-16T06:28:39;14.50;99.90
32877;DHT22;19226;51.600;8.034;2022-10-16T06:31:09;14.50;99.90
32877;DHT22;19226;51.600;8.034;2022-10-16T06:33:38;14.50;99.90
32877;DHT22;19226;51.600;8.034;2022-10-16T06:38:32;14.50;99.90
32877;DHT22;19226;51.600;8.034;2022-10-16T06:40:58;14.50;99.90
32877;DHT22;19226;51.600;8.034;2022-10-16T06:43:28;14.50;99.90
32877;DHT22;19226;51.600;8.034;2022-10-16T06:45:56;14.60;99.90
32877;DHT22;19226;51.600;8.034;2022-10-16T06:48:24;14.60;99.90
32877;DHT22;19226;51.600;8.034;2022-10-16T06:51:17;14.60;99.90
32877;DHT22;19226;51.600;8.034;2022-10-16T06:53:48;14.70;99.90
32877;DHT22;19226;51.600;8.034;2022-10-16T06:56:24;14.70;99.90
32877;DHT22;19226;51.600;8.034;2022-10-16T06:58:51;14.70;99.90
32877;DHT22;19226;51.600;8.034;2022-10-16T07:01:22;14.80;99.90
32877;DHT22;19226;51.600;8.034;2022-10-16T07:03:49;14.80;99.90
32877;DHT22;19226;51.600;8.034;2022-10-16T07:06:20;14.80;99.90
32877;DHT22;19226;51.600;8.034;2022-10-16T07:08:46;14.90;99.90
32877;DHT22;19226;51.600;8.034;2022-10-16T07:11:16;14.90;99.90
32877;DHT22;19226;51.600;8.034;2022-10-16T07:13:44;15.00;99.90
32877;DHT22;19226;51.600;8.034;2022-10-16T07:16:23;15.00;99.90
32877;DHT22;19226;51.600;8.034;2022-10-16T07:18:49;15.10;99.90
32877;DHT22;19226;51.600;8.034;2022-10-16T07:21:19;15.10;99.90
32877;DHT22;19226;51.600;8.034;2022-10-16T07:23:55;15.20;99.90
32877;DHT22;19226;51.600;8.034;2022-10-16T07:26:22;15.20;99.90
32877;DHT22;19226;51.600;8.034;2022-10-16T07:28:51;15.30;99.90
32877;DHT22;19226;51.600;8.034;2022-10-16T07:31:19;15.30;99.90
32877;DHT22;19226;51.600;8.034;2022-10-16T07:33:47;15.40;99.90
32877;DHT22;19226;51.600;8.034;2022-10-16T07:36:15;15.50;99.90
32877;DHT22;19226;51.600;8.034;2022-10-16T07:38:42;15.60;99.90
32877;DHT22;19226;51.600;8.034;2022-10-16T07:41:11;15.60;99.90
32877;DHT22;19226;51.600;8.034;2022-10-16T07:43:38;15.70;99.90
32877;DHT22;19226;51.600;8.034;2022-10-16T07:46:05;15.80;99.90
32877;DHT22;19226;51.600;8.034;2022-10-16T07:48:34;15.90;99.90
32877;DHT22;19226;51.600;8.034;2022-10-16T07:51:05;16.00;99.90
32877;DHT22;19226;51.600;8.034;2022-10-16T07:53:32;16.00;99.90
32877;DHT22;19226;51.600;8.034;2022-10-16T07:56:00;16.10;99.90
32877;DHT22;19226;51.600;8.034;2022-10-16T07:58:28;16.10;99.90
32877;DHT22;19226;51.600;8.034;2022-10-16T08:00:55;16.10;99.90
32877;DHT22;19226;51.600;8.034;2022-10-16T08:03:25;16.20;99.90
32877;DHT22;19226;51.600;8.034;2022-10-16T08:06:01;16.20;99.90
32877;DHT22;19226;51.600;8.034;2022-10-16T08:08:34;16.20;99.90
32877;DHT22;19226;51.600;8.034;2022-10-16T08:11:01;16.30;99.90
32877;DHT22;19226;51.600;8.034;2022-10-16T08:13:30;16.30;99.90
32877;DHT22;19226;51.600;8.034;2022-10-16T08:15:58;16.40;99.90
32877;DHT22;19226;51.600;8.034;2022-10-16T08:18:24;16.40;99.90
32877;DHT22;19226;51.600;8.034;2022-10-16T08:21:14;16.40;99.90
32877;DHT22;19226;51.600;8.034;2022-10-16T08:23:41;16.50;99.90
32877;DHT22;19226;51.600;8.034;2022-10-16T08:26:08;16.40;99.90
32877;DHT22;19226;51.600;8.034;2022-10-16T08:28:35;16.40;99.90
32877;DHT22;19226;51.600;8.034;2022-10-16T08:31:13;16.40;99.90
32877;DHT22;19226;51.600;8.034;2022-10-16T08:33:41;16.50;99.90
32877;DHT22;19226;51.600;8.034;2022-10-16T08:36:10;16.60;99.90
32877;DHT22;19226;51.600;8.034;2022-10-16T08:38:37;16.70;99.90
32877;DHT22;19226;51.600;8.034;2022-10-16T08:49:33;17.20;99.90
32877;DHT22;19226;51.600;8.034;2022-10-16T08:52:00;17.30;99.90
32877;DHT22;19226;51.600;8.034;2022-10-16T08:54:31;17.30;99.90
32877;DHT22;19226;51.600;8.034;2022-10-16T08:57:32;17.50;99.90
32877;DHT22;19226;51.600;8.034;2022-10-16T09:00:12;17.60;99.90
32877;DHT22;19226;51.600;8.034;2022-10-16T09:02:44;17.70;99.90
32877;DHT22;19226;51.600;8.034;2022-10-16T09:05:22;17.70;99.90
32877;DHT22;19226;51.600;8.034;2022-10-16T09:10:38;17.90;99.90
32877;DHT22;19226;51.600;8.034;2022-10-16T09:13:19;18.00;99.90
32877;DHT22;19226;51.600;8.034;2022-10-16T09:16:02;18.10;99.90
32877;DHT22;19226;51.600;8.034;2022-10-16T09:21:30;18.30;99.90
32877;DHT22;19226;51.600;8.034;2022-10-16T09:23:58;18.30;99.90
32877;DHT22;19226;51.600;8.034;2022-10-16T09:26:25;18.40;99.90
32877;DHT22;19226;51.600;8.034;2022-10-16T09:28:53;18.50;99.90
32877;DHT22;19226;51.600;8.034;2022-10-16T09:31:21;18.50;99.90
32877;DHT22;19226;51.600;8.034;2022-10-16T09:33:57;18.60;99.90
32877;DHT22;19226;51.600;8.034;2022-10-16T09:36:27;18.70;99.90
32877;DHT22;19226;51.600;8.034;2022-10-16T09:39:08;18.80;99.90
32877;DHT22;19226;51.600;8.034;2022-10-16T09:45:29;18.90;99.90
32877;DHT22;19226;51.600;8.034;2022-10-16T09:47:55;19.00;99.90
32877;DHT22;19226;51.600;8.034;2022-10-16T09:50:28;19.10;99.90
32877;DHT22;19226;51.600;8.034;2022-10-16T09:53:13;19.20;99.90
32877;DHT22;19226;51.600;8.034;2022-10-16T09:55:50;19.20;99.90
32877;DHT22;19226;51.600;8.034;2022-10-16T09:58:17;19.30;99.90
32877;DHT22;19226;51.600;8.034;2022-10-16T10:00:50;19.30;99.90
32877;DHT22;19226;51.600;8.034;2022-10-16T10:03:38;19.40;99.90
32877;DHT22;19226;51.600;8.034;2022-10-16T10:06:25;19.50;99.90
32877;DHT22;19226;51.600;8.034;2022-10-16T10:09:00;19.50;99.90
32877;DHT22;19226;51.600;8.034;2022-10-16T10:11:50;19.60;99.90
32877;DHT22;19226;51.600;8.034;2022-10-16T10:14:18;19.70;99.90
32877;DHT22;19226;51.600;8.034;2022-10-16T10:16:46;19.80;99.90
32877;DHT22;19226;51.600;8.034;2022-10-16T10:19:21;19.80;99.90
32877;DHT22;19226;51.600;8.034;2022-10-16T10:21:49;19.80;99.90
32877;DHT22;19226;51.600;8.034;2022-10-16T10:24:17;19.90;99.90
32877;DHT22;19226;51.600;8.034;2022-10-16T10:27:14;20.00;99.90
32877;DHT22;19226;51.600;8.034;2022-10-16T10:35:56;20.10;99.90
32877;DHT22;19226;51.600;8.034;2022-10-16T10:39:08;20.10;99.90
32877;DHT22;19226;51.600;8.034;2022-10-16T10:44:17;20.20;99.90
32877;DHT22;19226;51.600;8.034;2022-10-16T10:47:01;20.30;99.90
32877;DHT22;19226;51.600;8.034;2022-10-16T10:52:38;20.40;99.90
32877;DHT22;19226;51.600;8.034;2022-10-16T10:55:26;20.50;99.90
32877;DHT22;19226;51.600;8.034;2022-10-16T11:01:29;20.70;99.90
32877;DHT22;19226;51.600;8.034;2022-10-16T11:03:55;20.70;99.90
32877;DHT22;19226;51.600;8.034;2022-10-16T11:06:46;20.80;99.90
32877;DHT22;19226;51.600;8.034;2022-10-16T11:09:45;21.00;99.90
32877;DHT22;19226;51.600;8.034;2022-10-16T11:12:19;21.10;99.90
32877;DHT22;19226;51.600;8.034;2022-10-16T11:20:23;21.30;99.90
32877;DHT22;19226;51.600;8.034;2022-10-16T11:22:54;21.30;99.90
32877;DHT22;19226;51.600;8.034;2022-10-16T11:25:30;21.30;99.90
32877;DHT22;19226;51.600;8.034;2022-10-16T11:28:21;21.40;99.90
32877;DHT22;19226;51.600;8.034;2022-10-16T11:30:56;21.40;99.90
32877;DHT22;19226;51.600;8.034;2022-10-16T11:36:41;21.50;99.90
32877;DHT22;19226;51.600;8.034;2022-10-16T11:39:29;21.70;99.90
32877;DHT22;19226;51.600;8.034;2022-10-16T11:42:27;21.80;99.90
32877;DHT22;19226;51.600;8.034;2022-10-16T11:45:11;21.80;99.90
32877;DHT22;19226;51.600;8.034;2022-10-16T11:47:51;21.80;99.90
32877;DHT22;19226;51.600;8.034;2022-10-16T11:50:56;21.80;99.90
32877;DHT22;19226;51.600;8.034;2022-10-16T11:56:20;21.90;99.90
32877;DHT22;19226;51.600;8.034;2022-10-16T11:59:03;21.90;99.90
32877;DHT22;19226;51.600;8.034;2022-10-16T12:01:58;22.00;99.90
32877;DHT22;19226;51.600;8.034;2022-10-16T12:04:42;22.20;99.90
32877;DHT22;19226;51.600;8.034;2022-10-16T12:07:18;22.40;99.90
32877;DHT22;19226;51.600;8.034;2022-10-16T12:09:46;22.40;99.90
32877;DHT22;19226;51.600;8.034;2022-10-16T12:12:38;22.50;99.90
32877;DHT22;19226;51.600;8.034;2022-10-16T12:15:40;22.70;99.90
32877;DHT22;19226;51.600;8.034;2022-10-16T12:18:24;22.70;99.90
32877;DHT22;19226;51.600;8.034;2022-10-16T12:20:58;22.70;99.90
32877;DHT22;19226;51.600;8.034;2022-10-16T12:23:30;22.80;99.90
32877;DHT22;19226;51.600;8.034;2022-10-16T12:25:58;22.70;99.90
32877;DHT22;19226;51.600;8.034;2022-10-16T12:28:34;22.80;99.90
32877;DHT22;19226;51.600;8.034;2022-10-16T12:31:06;22.90;99.90
32877;DHT22;19226;51.600;8.034;2022-10-16T12:33:41;23.00;99.90
32877;DHT22;19226;51.600;8.034;2022-10-16T12:36:15;23.00;99.90
32877;DHT22;19226;51.600;8.034;2022-10-16T12:39:01;23.00;99.90
32877;DHT22;19226;51.600;8.034;2022-10-16T12:41:33;23.10;99.90
32877;DHT22;19226;51.600;8.034;2022-10-16T12:44:01;23.10;99.90
32877;DHT22;19226;51.600;8.034;2022-10-16T12:51:54;23.30;99.90
32877;DHT22;19226;51.600;8.034;2022-10-16T12:54:30;23.20;99.90
32877;DHT22;19226;51.600;8.034;2022-10-16T12:57:36;23.30;99.90
32877;DHT22;19226;51.600;8.034;2022-10-16T13:13:26;23.60;99.90
32877;DHT22;19226;51.600;8.034;2022-10-16T13:26:00;23.90;99.90
32877;DHT22;19226;51.600;8.034;2022-10-16T13:28:06;24.00;99.90
32877;DHT22;19226;51.600;8.034;2022-10-16T13:31:14;23.90;99.90
32877;DHT22;19226;51.600;8.034;2022-10-16T13:33:37;23.90;99.90
32877;DHT22;19226;51.600;8.034;2022-10-16T13:40:20;24.00;99.90
32877;DHT22;19226;51.600;8.034;2022-10-16T13:43:07;24.10;99.90
32877;DHT22;19226;51.600;8.034;2022-10-16T13:45:37;24.10;99.90
32877;DHT22;19226;51.600;8.034;2022-10-16T13:48:05;24.10;99.90
32877;DHT22;19226;51.600;8.034;2022-10-16T13:53:37;24.20;99.90
32877;DHT22;19226;51.600;8.034;2022-10-16T13:56:06;24.20;99.90
32877;DHT22;19226;51.600;8.034;2022-10-16T13:58:35;24.00;99.90
32877;DHT22;19226;51.600;8.034;2022-10-16T14:01:14;24.00;99.90
32877;DHT22;19226;51.600;8.034;2022-10-16T14:03:42;24.10;99.90
32877;DHT22;19226;51.600;8.034;2022-10-16T14:06:27;24.30;99.90
32877;DHT22;19226;51.600;8.034;2022-10-16T14:09:14;24.40;99.90
32877;DHT22;19226;51.600;8.034;2022-10-16T14:11:51;24.50;99.90
32877;DHT22;19226;51.600;8.034;2022-10-16T14:14:19;24.40;99.90
32877;DHT22;19226;51.600;8.034;2022-10-16T14:16:47;24.40;99.90
32877;DHT22;19226;51.600;8.034;2022-10-16T14:19:26;24.40;99.90
32877;DHT22;19226;51.600;8.034;2022-10-16T14:21:53;24.40;99.90
32877;DHT22;19226;51.600;8.034;2022-10-16T14:24:34;24.60;99.90
32877;DHT22;19226;51.600;8.034;2022-10-16T14:27:01;24.70;99.90
32877;DHT22;19226;51.600;8.034;2022-10-16T14:29:29;24.60;99.90
32877;DHT22;19226;51.600;8.034;2022-10-16T14:32:01;24.70;99.90
32877;DHT22;19226;51.600;8.034;2022-10-16T14:34:35;24.80;99.90
32877;DHT22;19226;51.600;8.034;2022-10-16T14:37:24;25.00;99.90
32877;DHT22;19226;51.600;8.034;2022-10-16T14:39:52;25.10;99.90
32877;DHT22;19226;51.600;8.034;2022-10-16T14:42:20;25.00;99.90
32877;DHT22;19226;51.600;8.034;2022-10-16T14:44:50;25.00;99.90
32877;DHT22;19226;51.600;8.034;2022-10-16T14:47:24;25.00;99.90
32877;DHT22;19226;51.600;8.034;2022-10-16T14:49:52;24.90;99.90
32877;DHT22;19226;51.600;8.034;2022-10-16T14:52:21;24.80;99.90
32877;DHT22;19226;51.600;8.034;2022-10-16T14:54:50;24.80;99.90
32877;DHT22;19226;51.600;8.034;2022-10-16T14:57:27;24.80;99.90
32877;DHT22;19226;51.600;8.034;2022-10-16T14:59:54;24.80;99.90
32877;DHT22;19226;51.600;8.034;2022-10-16T15:02:28;24.70;99.90
32877;DHT22;19226;51.600;8.034;2022-10-16T15:04:55;24.70;99.90
32877;DHT22;19226;51.600;8.034;2022-10-16T15:07:22;24.50;99.90
32877;DHT22;19226;51.600;8.034;2022-10-16T15:09:49;24.40;99.90
32877;DHT22;19226;51.600;8.034;2022-10-16T15:12:16;24.40;99.90
32877;DHT22;19226;51.600;8.034;2022-10-16T15:14:42;24.30;99.90
32877;DHT22;19226;51.600;8.034;2022-10-16T15:17:10;24.00;99.90
32877;DHT22;19226;51.600;8.034;2022-10-16T15:19:37;23.90;99.90
32877;DHT22;19226;51.600;8.034;2022-10-16T15:22:04;23.80;99.90
32877;DHT22;19226;51.600;8.034;2022-10-16T15:24:30;23.80;99.90
32877;DHT22;19226;51.600;8.034;2022-10-16T15:27:16;23.90;99.90
32877;DHT22;19226;51.600;8.034;2022-10-16T15:29:42;24.20;99.90
32877;DHT22;19226;51.600;8.034;2022-10-16T15:32:10;24.10;99.90
32877;DHT22;19226;51.600;8.034;2022-10-16T15:34:36;23.90;99.90
32877;DHT22;19226;51.600;8.034;2022-10-16T15:37:03;23.80;99.90
32877;DHT22;19226;51.600;8.034;2022-10-16T15:39:29;23.60;99.90
32877;DHT22;19226;51.600;8.034;2022-10-16T15:41:57;23.50;99.90
32877;DHT22;19226;51.600;8.034;2022-10-16T15:44:23;23.40;99.90
32877;DHT22;19226;51.600;8.034;2022-10-16T15:46:54;23.30;99.90
32877;DHT22;19226;51.600;8.034;2022-10-16T15:49:20;23.20;99.90
32877;DHT22;19226;51.600;8.034;2022-10-16T15:51:48;23.00;99.90
32877;DHT22;19226;51.600;8.034;2022-10-16T15:54:18;22.90;99.90
32877;DHT22;19226;51.600;8.034;2022-10-16T15:56:47;22.80;99.90
32877;DHT22;19226;51.600;8.034;2022-10-16T15:59:14;22.70;99.90
32877;DHT22;19226;51.600;8.034;2022-10-16T16:01:40;22.60;99.90
32877;DHT22;19226;51.600;8.034;2022-10-16T16:04:07;22.50;99.90
32877;DHT22;19226;51.600;8.034;2022-10-16T16:06:34;22.30;99.90
32877;DHT22;19226;51.600;8.034;2022-10-16T16:09:04;22.10;99.90
32877;DHT22;19226;51.600;8.034;2022-10-16T16:11:30;22.00;99.90
32877;DHT22;19226;51.600;8.034;2022-10-16T16:13:57;21.90;99.90
32877;DHT22;19226;51.600;8.034;2022-10-16T16:16:23;21.80;99.90
32877;DHT22;19226;51.600;8.034;2022-10-16T16:18:52;21.80;99.90
32877;DHT22;19226;51.600;8.034;2022-10-16T16:21:21;21.70;99.90
32877;DHT22;19226;51.600;8.034;2022-10-16T16:23:47;21.60;99.90
32877;DHT22;19226;51.600;8.034;2022-10-16T16:26:24;21.40;99.90
32877;DHT22;19226;51.600;8.034;2022-10-16T16:28:56;21.40;99.90
32877;DHT22;19226;51.600;8.034;2022-10-16T16:31:29;21.30;99.90
32877;DHT22;19226;51.600;8.034;2022-10-16T16:33:56;21.20;99.90
32877;DHT22;19226;51.600;8.034;2022-10-16T16:36:24;21.10;99.90
32877;DHT22;19226;51.600;8.034;2022-10-16T16:38:51;21.10;99.90
32877;DHT22;19226;51.600;8.034;2022-10-16T16:41:19;21.00;99.90
32877;DHT22;19226;51.600;8.034;2022-10-16T16:43:46;20.90;99.90
32877;DHT22;19226;51.600;8.034;2022-10-16T16:46:15;20.90;99.90
32877;DHT22;19226;51.600;8.034;2022-10-16T16:48:41;20.80;99.90
32877;DHT22;19226;51.600;8.034;2022-10-16T16:51:10;20.70;99.90
32877;DHT22;19226;51.600;8.034;2022-10-16T16:53:44;20.70;99.90
32877;DHT22;19226;51.600;8.034;2022-10-16T16:56:13;20.60;99.90
32877;DHT22;19226;51.600;8.034;2022-10-16T16:58:39;20.50;99.90
32877;DHT22;19226;51.600;8.034;2022-10-16T17:01:05;20.50;99.90
32877;DHT22;19226;51.600;8.034;2022-10-16T17:03:34;20.40;99.90
32877;DHT22;19226;51.600;8.034;2022-10-16T17:06:21;20.40;99.90
32877;DHT22;19226;51.600;8.034;2022-10-16T17:08:48;20.30;99.90
32877;DHT22;19226;51.600;8.034;2022-10-16T17:11:20;20.20;99.90
32877;DHT22;19226;51.600;8.034;2022-10-16T17:13:48;20.20;99.90
32877;DHT22;19226;51.600;8.034;2022-10-16T17:16:16;20.10;99.90
32877;DHT22;19226;51.600;8.034;2022-10-16T17:18:42;20.10;99.90
32877;DHT22;19226;51.600;8.034;2022-10-16T17:21:09;20.00;99.90
32877;DHT22;19226;51.600;8.034;2022-10-16T17:23:36;19.90;99.90
32877;DHT22;19226;51.600;8.034;2022-10-16T17:26:07;19.90;99.90